sensor_id;sensor_type;location;lat;lon;timestamp;P1;durP1;ratioP1;P2;durP2;ratioP2
46721;SDS011;32455;43.430;23.136;2022-12-18T00:02:27;22.27;;;11.18;;
46721;SDS011;32455;43.430;23.136;2022-12-18T00:05:12;24.48;;;12.60;;
46721;SDS011;32455;43.430;23.136;2022-12-18T00:07:57;23.23;;;12.55;;
46721;SDS011;32455;43.430;23.136;2022-12-18T00:10:43;20.58;;;10.98;;
46721;SDS011;32455;43.430;23.136;2022-12-18T00:13:30;18.95;;;11.75;;
46721;SDS011;32455;43.430;23.136;2022-12-18T00:16:16;15.82;;;10.48;;
46721;SDS011;32455;43.430;23.136;2022-12-18T00:19:08;16.13;;;10.77;;
46721;SDS011;32455;43.430;23.136;2022-12-18T00:21:55;19.88;;;12.57;;
46721;SDS011;32455;43.430;23.136;2022-12-18T00:24:40;19.63;;;11.48;;
46721;SDS011;32455;43.430;23.136;2022-12-18T00:27:25;18.73;;;11.98;;
46721;SDS011;32455;43.430;23.136;2022-12-18T00:30:11;20.90;;;11.68;;
46721;SDS011;32455;43.430;23.136;2022-12-18T00:32:57;21.67;;;12.43;;
46721;SDS011;32455;43.430;23.136;2022-12-18T00:35:42;21.27;;;12.82;;
46721;SDS011;32455;43.430;23.136;2022-12-18T00:38:28;20.98;;;11.73;;
46721;SDS011;32455;43.430;23.136;2022-12-18T00:41:15;20.50;;;12.35;;
46721;SDS011;32455;43.430;23.136;2022-12-18T00:44:20;22.10;;;13.13;;
46721;SDS011;32455;43.430;23.136;2022-12-18T00:47:05;19.30;;;13.00;;
46721;SDS011;32455;43.430;23.136;2022-12-18T00:49:51;19.67;;;11.90;;
46721;SDS011;32455;43.430;23.136;2022-12-18T00:52:37;19.95;;;12.60;;
46721;SDS011;32455;43.430;23.136;2022-12-18T00:55:22;21.90;;;12.68;;
46721;SDS011;32455;43.430;23.136;2022-12-18T00:58:08;22.42;;;12.80;;
46721;SDS011;32455;43.430;23.136;2022-12-18T01:00:55;24.20;;;12.02;;
46721;SDS011;32455;43.430;23.136;2022-12-18T01:03:39;21.00;;;12.70;;
46721;SDS011;32455;43.430;23.136;2022-12-18T01:06:24;17.35;;;11.88;;
46721;SDS011;32455;43.430;23.136;2022-12-18T01:09:10;19.40;;;12.23;;
46721;SDS011;32455;43.430;23.136;2022-12-18T01:11:55;16.30;;;10.20;;
46721;SDS011;32455;43.430;23.136;2022-12-18T01:14:40;16.13;;;10.80;;
46721;SDS011;32455;43.430;23.136;2022-12-18T01:17:26;20.55;;;12.07;;
46721;SDS011;32455;43.430;23.136;2022-12-18T01:20:11;16.38;;;10.73;;
46721;SDS011;32455;43.430;23.136;2022-12-18T01:22:57;18.58;;;11.52;;
46721;SDS011;32455;43.430;23.136;2022-12-18T01:25:43;17.00;;;11.15;;
46721;SDS011;32455;43.430;23.136;2022-12-18T01:28:28;18.08;;;10.98;;
46721;SDS011;32455;43.430;23.136;2022-12-18T01:31:21;19.10;;;11.93;;
46721;SDS011;32455;43.430;23.136;2022-12-18T01:34:14;20.98;;;11.38;;
46721;SDS011;32455;43.430;23.136;2022-12-18T01:37:01;20.50;;;12.43;;
46721;SDS011;32455;43.430;23.136;2022-12-18T01:39:48;17.08;;;11.07;;
46721;SDS011;32455;43.430;23.136;2022-12-18T01:42:34;19.75;;;12.02;;
46721;SDS011;32455;43.430;23.136;2022-12-18T01:45:28;17.85;;;11.27;;
46721;SDS011;32455;43.430;23.136;2022-12-18T01:48:16;19.83;;;11.38;;
46721;SDS011;32455;43.430;23.136;2022-12-18T01:51:01;16.55;;;10.95;;
46721;SDS011;32455;43.430;23.136;2022-12-18T01:53:47;17.83;;;11.23;;
46721;SDS011;32455;43.430;23.136;2022-12-18T01:56:33;19.58;;;10.40;;
46721;SDS011;32455;43.430;23.136;2022-12-18T01:59:19;15.93;;;11.35;;
46721;SDS011;32455;43.430;23.136;2022-12-18T02:02:05;15.43;;;10.27;;
46721;SDS011;32455;43.430;23.136;2022-12-18T02:04:52;16.55;;;10.15;;
46721;SDS011;32455;43.430;23.136;2022-12-18T02:07:42;19.25;;;11.93;;
46721;SDS011;32455;43.430;23.136;2022-12-18T02:10:31;25.55;;;15.27;;
46721;SDS011;32455;43.430;23.136;2022-12-18T02:28:23;16.83;;;11.05;;
46721;SDS011;32455;43.430;23.136;2022-12-18T02:31:14;16.10;;;11.13;;
46721;SDS011;32455;43.430;23.136;2022-12-18T02:34:07;17.70;;;10.38;;
46721;SDS011;32455;43.430;23.136;2022-12-18T02:36:55;19.23;;;11.10;;
46721;SDS011;32455;43.430;23.136;2022-12-18T02:39:42;19.65;;;11.15;;
46721;SDS011;32455;43.430;23.136;2022-12-18T02:42:30;20.23;;;11.05;;
46721;SDS011;32455;43.430;23.136;2022-12-18T02:45:17;18.83;;;11.57;;
46721;SDS011;32455;43.430;23.136;2022-12-18T02:48:02;19.00;;;11.57;;
46721;SDS011;32455;43.430;23.136;2022-12-18T02:50:52;18.75;;;11.15;;
46721;SDS011;32455;43.430;23.136;2022-12-18T02:56:57;15.65;;;10.23;;
46721;SDS011;32455;43.430;23.136;2022-12-18T03:00:36;18.30;;;11.00;;
46721;SDS011;32455;43.430;23.136;2022-12-18T03:03:10;19.52;;;11.00;;
46721;SDS011;32455;43.430;23.136;2022-12-18T03:06:07;21.88;;;13.13;;
46721;SDS011;32455;43.430;23.136;2022-12-18T03:08:58;21.25;;;12.15;;
46721;SDS011;32455;43.430;23.136;2022-12-18T03:11:50;19.38;;;11.68;;
46721;SDS011;32455;43.430;23.136;2022-12-18T03:15:03;18.95;;;11.63;;
46721;SDS011;32455;43.430;23.136;2022-12-18T03:17:52;19.15;;;12.48;;
46721;SDS011;32455;43.430;23.136;2022-12-18T03:20:45;17.05;;;11.95;;
46721;SDS011;32455;43.430;23.136;2022-12-18T03:23:34;18.33;;;10.68;;
46721;SDS011;32455;43.430;23.136;2022-12-18T03:26:25;16.58;;;11.15;;
46721;SDS011;32455;43.430;23.136;2022-12-18T03:29:17;21.27;;;13.02;;
46721;SDS011;32455;43.430;23.136;2022-12-18T03:32:11;21.83;;;12.23;;
46721;SDS011;32455;43.430;23.136;2022-12-18T03:35:02;18.92;;;11.93;;
46721;SDS011;32455;43.430;23.136;2022-12-18T03:37:50;18.00;;;11.25;;
46721;SDS011;32455;43.430;23.136;2022-12-18T03:40:40;17.25;;;10.65;;
46721;SDS011;32455;43.430;23.136;2022-12-18T03:49:19;20.38;;;12.70;;
46721;SDS011;32455;43.430;23.136;2022-12-18T03:55:32;20.10;;;11.70;;
46721;SDS011;32455;43.430;23.136;2022-12-18T03:58:21;19.33;;;12.88;;
46721;SDS011;32455;43.430;23.136;2022-12-18T04:01:09;22.50;;;12.75;;
46721;SDS011;32455;43.430;23.136;2022-12-18T04:04:00;20.98;;;12.95;;
46721;SDS011;32455;43.430;23.136;2022-12-18T04:06:47;21.73;;;12.55;;
46721;SDS011;32455;43.430;23.136;2022-12-18T04:09:35;18.60;;;11.38;;
46721;SDS011;32455;43.430;23.136;2022-12-18T04:12:25;18.80;;;11.73;;
46721;SDS011;32455;43.430;23.136;2022-12-18T04:15:13;18.20;;;11.25;;
46721;SDS011;32455;43.430;23.136;2022-12-18T04:17:59;21.48;;;11.40;;
46721;SDS011;32455;43.430;23.136;2022-12-18T04:20:44;25.58;;;13.27;;
46721;SDS011;32455;43.430;23.136;2022-12-18T04:23:30;27.75;;;14.52;;
46721;SDS011;32455;43.430;23.136;2022-12-18T04:26:15;23.63;;;14.10;;
46721;SDS011;32455;43.430;23.136;2022-12-18T04:29:01;21.15;;;12.80;;
46721;SDS011;32455;43.430;23.136;2022-12-18T04:31:46;18.52;;;11.50;;
46721;SDS011;32455;43.430;23.136;2022-12-18T04:34:32;18.00;;;11.13;;
46721;SDS011;32455;43.430;23.136;2022-12-18T04:37:18;18.23;;;10.20;;
46721;SDS011;32455;43.430;23.136;2022-12-18T04:40:04;17.85;;;10.75;;
46721;SDS011;32455;43.430;23.136;2022-12-18T04:42:51;15.25;;;10.07;;
46721;SDS011;32455;43.430;23.136;2022-12-18T04:45:36;19.30;;;11.98;;
46721;SDS011;32455;43.430;23.136;2022-12-18T04:48:22;18.83;;;11.25;;
46721;SDS011;32455;43.430;23.136;2022-12-18T04:51:07;27.25;;;14.48;;
46721;SDS011;32455;43.430;23.136;2022-12-18T04:53:53;23.67;;;13.52;;
46721;SDS011;32455;43.430;23.136;2022-12-18T04:56:39;24.52;;;13.60;;
46721;SDS011;32455;43.430;23.136;2022-12-18T04:59:24;23.95;;;13.60;;
46721;SDS011;32455;43.430;23.136;2022-12-18T05:02:10;22.63;;;13.40;;
46721;SDS011;32455;43.430;23.136;2022-12-18T05:04:56;23.00;;;13.30;;
46721;SDS011;32455;43.430;23.136;2022-12-18T05:07:41;21.00;;;14.35;;
46721;SDS011;32455;43.430;23.136;2022-12-18T05:10:26;27.10;;;15.20;;
46721;SDS011;32455;43.430;23.136;2022-12-18T05:13:12;26.35;;;14.93;;
46721;SDS011;32455;43.430;23.136;2022-12-18T05:15:58;32.30;;;18.85;;
46721;SDS011;32455;43.430;23.136;2022-12-18T05:18:44;23.02;;;14.50;;
46721;SDS011;32455;43.430;23.136;2022-12-18T05:21:29;26.10;;;14.57;;
46721;SDS011;32455;43.430;23.136;2022-12-18T05:24:16;26.20;;;14.30;;
46721;SDS011;32455;43.430;23.136;2022-12-18T05:27:02;27.48;;;14.55;;
46721;SDS011;32455;43.430;23.136;2022-12-18T05:29:48;25.10;;;14.13;;
46721;SDS011;32455;43.430;23.136;2022-12-18T05:32:33;23.92;;;13.85;;
46721;SDS011;32455;43.430;23.136;2022-12-18T05:35:19;25.15;;;15.40;;
46721;SDS011;32455;43.430;23.136;2022-12-18T05:38:04;26.23;;;14.93;;
46721;SDS011;32455;43.430;23.136;2022-12-18T05:40:50;29.33;;;14.93;;
46721;SDS011;32455;43.430;23.136;2022-12-18T05:43:36;29.50;;;14.18;;
46721;SDS011;32455;43.430;23.136;2022-12-18T05:46:23;24.77;;;14.25;;
46721;SDS011;32455;43.430;23.136;2022-12-18T05:49:09;28.40;;;14.88;;
46721;SDS011;32455;43.430;23.136;2022-12-18T05:51:54;30.15;;;14.07;;
46721;SDS011;32455;43.430;23.136;2022-12-18T05:54:39;25.95;;;13.48;;
46721;SDS011;32455;43.430;23.136;2022-12-18T05:57:25;26.75;;;13.48;;
46721;SDS011;32455;43.430;23.136;2022-12-18T06:00:11;25.67;;;13.90;;
46721;SDS011;32455;43.430;23.136;2022-12-18T06:02:57;22.95;;;12.90;;
46721;SDS011;32455;43.430;23.136;2022-12-18T06:05:44;24.52;;;13.40;;
46721;SDS011;32455;43.430;23.136;2022-12-18T06:08:30;20.60;;;12.95;;
46721;SDS011;32455;43.430;23.136;2022-12-18T06:11:20;21.95;;;13.15;;
46721;SDS011;32455;43.430;23.136;2022-12-18T06:14:06;20.38;;;12.00;;
46721;SDS011;32455;43.430;23.136;2022-12-18T06:16:52;19.70;;;10.57;;
46721;SDS011;32455;43.430;23.136;2022-12-18T06:19:38;16.20;;;10.80;;
46721;SDS011;32455;43.430;23.136;2022-12-18T06:22:23;21.52;;;13.05;;
46721;SDS011;32455;43.430;23.136;2022-12-18T06:25:09;24.52;;;13.05;;
46721;SDS011;32455;43.430;23.136;2022-12-18T06:27:55;17.42;;;11.05;;
46721;SDS011;32455;43.430;23.136;2022-12-18T06:30:43;22.10;;;13.40;;
46721;SDS011;32455;43.430;23.136;2022-12-18T06:33:30;20.27;;;11.60;;
46721;SDS011;32455;43.430;23.136;2022-12-18T06:36:16;17.90;;;11.63;;
46721;SDS011;32455;43.430;23.136;2022-12-18T06:39:02;20.10;;;12.75;;
46721;SDS011;32455;43.430;23.136;2022-12-18T06:41:47;18.15;;;11.82;;
46721;SDS011;32455;43.430;23.136;2022-12-18T06:44:33;18.23;;;11.32;;
46721;SDS011;32455;43.430;23.136;2022-12-18T06:47:18;31.75;;;17.48;;
46721;SDS011;32455;43.430;23.136;2022-12-18T06:50:04;25.08;;;15.50;;
46721;SDS011;32455;43.430;23.136;2022-12-18T06:52:50;22.58;;;13.57;;
46721;SDS011;32455;43.430;23.136;2022-12-18T06:55:35;19.48;;;12.95;;
46721;SDS011;32455;43.430;23.136;2022-12-18T06:58:20;22.67;;;12.25;;
46721;SDS011;32455;43.430;23.136;2022-12-18T07:01:07;19.20;;;12.85;;
46721;SDS011;32455;43.430;23.136;2022-12-18T07:03:55;21.50;;;13.00;;
46721;SDS011;32455;43.430;23.136;2022-12-18T07:06:41;22.90;;;13.48;;
46721;SDS011;32455;43.430;23.136;2022-12-18T07:09:27;25.80;;;14.45;;
46721;SDS011;32455;43.430;23.136;2022-12-18T07:12:13;25.48;;;14.95;;
46721;SDS011;32455;43.430;23.136;2022-12-18T07:14:59;22.75;;;14.88;;
46721;SDS011;32455;43.430;23.136;2022-12-18T07:17:44;21.13;;;13.95;;
46721;SDS011;32455;43.430;23.136;2022-12-18T07:20:30;21.10;;;13.65;;
46721;SDS011;32455;43.430;23.136;2022-12-18T07:23:15;20.73;;;12.48;;
46721;SDS011;32455;43.430;23.136;2022-12-18T07:26:03;21.83;;;13.15;;
46721;SDS011;32455;43.430;23.136;2022-12-18T07:28:50;19.33;;;11.75;;
46721;SDS011;32455;43.430;23.136;2022-12-18T07:31:40;17.83;;;11.40;;
46721;SDS011;32455;43.430;23.136;2022-12-18T07:34:26;17.38;;;11.15;;
46721;SDS011;32455;43.430;23.136;2022-12-18T07:37:11;14.07;;;10.05;;
46721;SDS011;32455;43.430;23.136;2022-12-18T07:39:57;15.77;;;10.48;;
46721;SDS011;32455;43.430;23.136;2022-12-18T07:42:42;15.50;;;10.82;;
46721;SDS011;32455;43.430;23.136;2022-12-18T07:45:28;16.65;;;11.15;;
46721;SDS011;32455;43.430;23.136;2022-12-18T07:48:14;17.23;;;10.15;;
46721;SDS011;32455;43.430;23.136;2022-12-18T07:51:00;14.38;;;9.45;;
46721;SDS011;32455;43.430;23.136;2022-12-18T07:53:49;16.23;;;10.25;;
46721;SDS011;32455;43.430;23.136;2022-12-18T07:56:34;16.75;;;10.70;;
46721;SDS011;32455;43.430;23.136;2022-12-18T07:59:19;17.98;;;12.15;;
46721;SDS011;32455;43.430;23.136;2022-12-18T08:02:05;17.48;;;11.95;;
46721;SDS011;32455;43.430;23.136;2022-12-18T08:04:50;16.52;;;11.38;;
46721;SDS011;32455;43.430;23.136;2022-12-18T08:07:35;14.60;;;9.40;;
46721;SDS011;32455;43.430;23.136;2022-12-18T08:10:20;19.52;;;12.02;;
46721;SDS011;32455;43.430;23.136;2022-12-18T08:13:07;19.70;;;11.32;;
46721;SDS011;32455;43.430;23.136;2022-12-18T08:15:58;15.82;;;10.38;;
46721;SDS011;32455;43.430;23.136;2022-12-18T08:18:45;14.30;;;9.20;;
46721;SDS011;32455;43.430;23.136;2022-12-18T08:21:31;13.07;;;8.90;;
46721;SDS011;32455;43.430;23.136;2022-12-18T08:24:17;17.92;;;10.20;;
46721;SDS011;32455;43.430;23.136;2022-12-18T08:27:02;12.27;;;7.82;;
46721;SDS011;32455;43.430;23.136;2022-12-18T08:29:47;10.32;;;7.70;;
46721;SDS011;32455;43.430;23.136;2022-12-18T08:32:32;11.18;;;6.65;;
46721;SDS011;32455;43.430;23.136;2022-12-18T08:35:18;17.45;;;10.15;;
46721;SDS011;32455;43.430;23.136;2022-12-18T08:38:03;25.02;;;12.80;;
46721;SDS011;32455;43.430;23.136;2022-12-18T08:40:49;13.07;;;8.60;;
46721;SDS011;32455;43.430;23.136;2022-12-18T08:43:34;10.85;;;7.28;;
46721;SDS011;32455;43.430;23.136;2022-12-18T08:46:39;11.93;;;8.23;;
46721;SDS011;32455;43.430;23.136;2022-12-18T08:49:26;12.77;;;8.27;;
46721;SDS011;32455;43.430;23.136;2022-12-18T08:52:11;13.73;;;8.98;;
46721;SDS011;32455;43.430;23.136;2022-12-18T08:55:01;14.65;;;8.75;;
46721;SDS011;32455;43.430;23.136;2022-12-18T08:57:50;12.20;;;7.72;;
46721;SDS011;32455;43.430;23.136;2022-12-18T09:00:35;13.82;;;8.02;;
46721;SDS011;32455;43.430;23.136;2022-12-18T09:03:20;13.25;;;8.02;;
46721;SDS011;32455;43.430;23.136;2022-12-18T09:06:07;12.05;;;8.52;;
46721;SDS011;32455;43.430;23.136;2022-12-18T09:08:53;12.63;;;7.90;;
46721;SDS011;32455;43.430;23.136;2022-12-18T09:11:38;23.70;;;10.63;;
46721;SDS011;32455;43.430;23.136;2022-12-18T09:14:24;15.45;;;8.90;;
46721;SDS011;32455;43.430;23.136;2022-12-18T09:17:10;17.77;;;10.63;;
46721;SDS011;32455;43.430;23.136;2022-12-18T09:19:55;14.82;;;9.20;;
46721;SDS011;32455;43.430;23.136;2022-12-18T09:22:41;16.30;;;9.23;;
46721;SDS011;32455;43.430;23.136;2022-12-18T09:25:26;12.52;;;7.72;;
46721;SDS011;32455;43.430;23.136;2022-12-18T09:28:18;18.13;;;10.35;;
46721;SDS011;32455;43.430;23.136;2022-12-18T09:31:05;18.30;;;9.55;;
46721;SDS011;32455;43.430;23.136;2022-12-18T09:33:52;13.57;;;8.70;;
46721;SDS011;32455;43.430;23.136;2022-12-18T09:36:40;12.07;;;7.55;;
46721;SDS011;32455;43.430;23.136;2022-12-18T09:39:26;12.07;;;8.25;;
46721;SDS011;32455;43.430;23.136;2022-12-18T09:42:17;13.63;;;8.60;;
46721;SDS011;32455;43.430;23.136;2022-12-18T09:45:07;11.45;;;7.68;;
46721;SDS011;32455;43.430;23.136;2022-12-18T09:47:59;17.88;;;9.45;;
46721;SDS011;32455;43.430;23.136;2022-12-18T09:50:45;16.10;;;9.40;;
46721;SDS011;32455;43.430;23.136;2022-12-18T09:53:32;18.13;;;8.98;;
46721;SDS011;32455;43.430;23.136;2022-12-18T09:56:22;14.13;;;7.95;;
46721;SDS011;32455;43.430;23.136;2022-12-18T09:59:29;12.55;;;8.60;;
46721;SDS011;32455;43.430;23.136;2022-12-18T10:02:23;16.00;;;9.15;;
46721;SDS011;32455;43.430;23.136;2022-12-18T10:05:17;14.65;;;8.18;;
46721;SDS011;32455;43.430;23.136;2022-12-18T10:08:17;11.23;;;7.90;;
46721;SDS011;32455;43.430;23.136;2022-12-18T10:14:41;12.77;;;7.93;;
46721;SDS011;32455;43.430;23.136;2022-12-18T10:20:48;13.23;;;7.25;;
46721;SDS011;32455;43.430;23.136;2022-12-18T10:26:34;14.50;;;8.43;;
46721;SDS011;32455;43.430;23.136;2022-12-18T10:29:20;12.10;;;7.20;;
46721;SDS011;32455;43.430;23.136;2022-12-18T10:32:06;13.02;;;8.25;;
46721;SDS011;32455;43.430;23.136;2022-12-18T10:34:56;11.25;;;6.93;;
46721;SDS011;32455;43.430;23.136;2022-12-18T10:38:04;12.07;;;6.97;;
46721;SDS011;32455;43.430;23.136;2022-12-18T10:43:45;10.30;;;6.45;;
46721;SDS011;32455;43.430;23.136;2022-12-18T10:46:30;10.98;;;7.45;;
46721;SDS011;32455;43.430;23.136;2022-12-18T10:49:21;12.43;;;8.30;;
46721;SDS011;32455;43.430;23.136;2022-12-18T10:52:19;15.05;;;7.82;;
46721;SDS011;32455;43.430;23.136;2022-12-18T10:55:13;12.75;;;7.57;;
46721;SDS011;32455;43.430;23.136;2022-12-18T10:58:21;12.55;;;7.53;;
46721;SDS011;32455;43.430;23.136;2022-12-18T11:01:14;11.30;;;6.88;;
46721;SDS011;32455;43.430;23.136;2022-12-18T11:04:02;11.82;;;6.40;;
46721;SDS011;32455;43.430;23.136;2022-12-18T11:07:00;10.47;;;6.70;;
46721;SDS011;32455;43.430;23.136;2022-12-18T11:09:59;10.13;;;5.93;;
46721;SDS011;32455;43.430;23.136;2022-12-18T11:12:46;9.95;;;6.30;;
46721;SDS011;32455;43.430;23.136;2022-12-18T11:15:32;11.23;;;7.45;;
46721;SDS011;32455;43.430;23.136;2022-12-18T11:18:25;18.10;;;9.02;;
46721;SDS011;32455;43.430;23.136;2022-12-18T11:21:16;8.20;;;5.53;;
46721;SDS011;32455;43.430;23.136;2022-12-18T11:24:02;8.80;;;5.53;;
46721;SDS011;32455;43.430;23.136;2022-12-18T11:26:48;9.73;;;5.20;;
46721;SDS011;32455;43.430;23.136;2022-12-18T11:29:38;9.45;;;5.72;;
46721;SDS011;32455;43.430;23.136;2022-12-18T11:32:27;9.40;;;4.93;;
46721;SDS011;32455;43.430;23.136;2022-12-18T11:35:25;8.40;;;5.60;;
46721;SDS011;32455;43.430;23.136;2022-12-18T11:44:33;8.52;;;5.18;;
46721;SDS011;32455;43.430;23.136;2022-12-18T11:51:08;7.03;;;4.63;;
46721;SDS011;32455;43.430;23.136;2022-12-18T11:54:00;6.95;;;4.55;;
46721;SDS011;32455;43.430;23.136;2022-12-18T12:00:13;5.70;;;3.63;;
46721;SDS011;32455;43.430;23.136;2022-12-18T12:06:10;6.75;;;4.35;;
46721;SDS011;32455;43.430;23.136;2022-12-18T12:09:20;8.82;;;4.82;;
46721;SDS011;32455;43.430;23.136;2022-12-18T12:16:15;6.72;;;4.38;;
46721;SDS011;32455;43.430;23.136;2022-12-18T12:40:56;6.50;;;4.03;;
46721;SDS011;32455;43.430;23.136;2022-12-18T12:43:45;6.28;;;4.38;;
46721;SDS011;32455;43.430;23.136;2022-12-18T12:46:36;7.18;;;4.40;;
46721;SDS011;32455;43.430;23.136;2022-12-18T12:49:26;7.15;;;4.60;;
46721;SDS011;32455;43.430;23.136;2022-12-18T12:52:24;10.23;;;4.15;;
46721;SDS011;32455;43.430;23.136;2022-12-18T12:55:25;7.95;;;4.55;;
46721;SDS011;32455;43.430;23.136;2022-12-18T12:58:33;8.63;;;4.90;;
46721;SDS011;32455;43.430;23.136;2022-12-18T13:04:56;8.50;;;4.55;;
46721;SDS011;32455;43.430;23.136;2022-12-18T13:07:51;8.45;;;5.15;;
46721;SDS011;32455;43.430;23.136;2022-12-18T13:10:42;8.00;;;4.88;;
46721;SDS011;32455;43.430;23.136;2022-12-18T13:13:28;31.10;;;11.00;;
46721;SDS011;32455;43.430;23.136;2022-12-18T13:16:37;16.27;;;7.97;;
46721;SDS011;32455;43.430;23.136;2022-12-18T13:19:23;8.95;;;5.43;;
46721;SDS011;32455;43.430;23.136;2022-12-18T13:22:23;8.70;;;4.57;;
46721;SDS011;32455;43.430;23.136;2022-12-18T13:34:27;9.60;;;5.18;;
46721;SDS011;32455;43.430;23.136;2022-12-18T13:37:39;9.50;;;5.78;;
46721;SDS011;32455;43.430;23.136;2022-12-18T13:43:37;10.80;;;6.10;;
46721;SDS011;32455;43.430;23.136;2022-12-18T13:46:28;12.98;;;7.78;;
46721;SDS011;32455;43.430;23.136;2022-12-18T13:52:34;10.60;;;5.60;;
46721;SDS011;32455;43.430;23.136;2022-12-18T13:55:23;10.02;;;6.03;;
46721;SDS011;32455;43.430;23.136;2022-12-18T13:58:11;9.75;;;5.30;;
46721;SDS011;32455;43.430;23.136;2022-12-18T14:00:56;11.85;;;6.97;;
46721;SDS011;32455;43.430;23.136;2022-12-18T14:03:43;12.38;;;6.68;;
46721;SDS011;32455;43.430;23.136;2022-12-18T14:06:29;14.98;;;6.00;;
46721;SDS011;32455;43.430;23.136;2022-12-18T14:09:24;11.95;;;6.07;;
46721;SDS011;32455;43.430;23.136;2022-12-18T14:12:14;10.00;;;5.50;;
46721;SDS011;32455;43.430;23.136;2022-12-18T14:24:15;9.20;;;5.88;;
46721;SDS011;32455;43.430;23.136;2022-12-18T14:27:22;12.35;;;6.43;;
46721;SDS011;32455;43.430;23.136;2022-12-18T14:30:31;14.60;;;8.05;;
46721;SDS011;32455;43.430;23.136;2022-12-18T14:36:04;13.70;;;7.85;;
46721;SDS011;32455;43.430;23.136;2022-12-18T14:38:57;12.20;;;7.05;;
46721;SDS011;32455;43.430;23.136;2022-12-18T14:41:44;12.60;;;7.55;;
46721;SDS011;32455;43.430;23.136;2022-12-18T14:44:29;14.32;;;8.15;;
46721;SDS011;32455;43.430;23.136;2022-12-18T14:47:15;14.35;;;8.20;;
46721;SDS011;32455;43.430;23.136;2022-12-18T14:50:02;12.80;;;8.00;;
46721;SDS011;32455;43.430;23.136;2022-12-18T14:52:48;13.35;;;7.03;;
46721;SDS011;32455;43.430;23.136;2022-12-18T14:55:34;15.43;;;9.05;;
46721;SDS011;32455;43.430;23.136;2022-12-18T14:58:19;16.60;;;8.88;;
46721;SDS011;32455;43.430;23.136;2022-12-18T15:01:05;15.60;;;7.82;;
46721;SDS011;32455;43.430;23.136;2022-12-18T15:03:52;12.95;;;8.15;;
46721;SDS011;32455;43.430;23.136;2022-12-18T15:06:38;19.85;;;9.95;;
46721;SDS011;32455;43.430;23.136;2022-12-18T15:09:26;15.10;;;8.88;;
46721;SDS011;32455;43.430;23.136;2022-12-18T15:18:30;12.13;;;6.65;;
46721;SDS011;32455;43.430;23.136;2022-12-18T15:21:19;12.32;;;7.28;;
46721;SDS011;32455;43.430;23.136;2022-12-18T15:24:13;13.20;;;7.60;;
46721;SDS011;32455;43.430;23.136;2022-12-18T15:27:54;13.93;;;7.63;;
46721;SDS011;32455;43.430;23.136;2022-12-18T15:30:23;15.40;;;7.93;;
46721;SDS011;32455;43.430;23.136;2022-12-18T15:33:20;14.32;;;8.45;;
46721;SDS011;32455;43.430;23.136;2022-12-18T15:36:10;15.45;;;8.23;;
46721;SDS011;32455;43.430;23.136;2022-12-18T15:38:57;17.02;;;9.88;;
46721;SDS011;32455;43.430;23.136;2022-12-18T15:41:43;16.85;;;10.40;;
46721;SDS011;32455;43.430;23.136;2022-12-18T15:44:49;19.95;;;9.95;;
46721;SDS011;32455;43.430;23.136;2022-12-18T15:47:34;18.50;;;11.35;;
46721;SDS011;32455;43.430;23.136;2022-12-18T15:50:20;18.33;;;10.77;;
46721;SDS011;32455;43.430;23.136;2022-12-18T15:53:07;18.80;;;10.07;;
46721;SDS011;32455;43.430;23.136;2022-12-18T15:55:54;21.35;;;10.70;;
46721;SDS011;32455;43.430;23.136;2022-12-18T15:58:59;15.57;;;9.20;;
46721;SDS011;32455;43.430;23.136;2022-12-18T16:01:46;19.10;;;9.00;;
46721;SDS011;32455;43.430;23.136;2022-12-18T16:04:33;15.68;;;8.65;;
46721;SDS011;32455;43.430;23.136;2022-12-18T16:07:20;17.02;;;9.75;;
46721;SDS011;32455;43.430;23.136;2022-12-18T16:10:06;17.73;;;9.77;;
46721;SDS011;32455;43.430;23.136;2022-12-18T16:12:52;20.25;;;10.55;;
46721;SDS011;32455;43.430;23.136;2022-12-18T16:15:38;16.85;;;10.00;;
46721;SDS011;32455;43.430;23.136;2022-12-18T16:18:23;21.08;;;10.27;;
46721;SDS011;32455;43.430;23.136;2022-12-18T16:21:09;20.40;;;10.40;;
46721;SDS011;32455;43.430;23.136;2022-12-18T16:23:54;21.35;;;12.23;;
46721;SDS011;32455;43.430;23.136;2022-12-18T16:26:39;20.95;;;13.05;;
46721;SDS011;32455;43.430;23.136;2022-12-18T16:29:27;22.55;;;12.20;;
46721;SDS011;32455;43.430;23.136;2022-12-18T16:32:16;23.85;;;11.55;;
46721;SDS011;32455;43.430;23.136;2022-12-18T16:35:02;24.25;;;12.50;;
46721;SDS011;32455;43.430;23.136;2022-12-18T16:37:48;25.00;;;12.68;;
46721;SDS011;32455;43.430;23.136;2022-12-18T16:40:34;19.58;;;10.93;;
46721;SDS011;32455;43.430;23.136;2022-12-18T16:43:39;21.42;;;11.48;;
46721;SDS011;32455;43.430;23.136;2022-12-18T16:46:25;23.33;;;11.73;;
46721;SDS011;32455;43.430;23.136;2022-12-18T16:49:11;21.38;;;10.90;;
46721;SDS011;32455;43.430;23.136;2022-12-18T16:51:58;18.65;;;9.52;;
46721;SDS011;32455;43.430;23.136;2022-12-18T16:54:46;20.75;;;10.75;;
46721;SDS011;32455;43.430;23.136;2022-12-18T16:57:31;21.70;;;12.10;;
46721;SDS011;32455;43.430;23.136;2022-12-18T17:00:18;26.75;;;13.05;;
46721;SDS011;32455;43.430;23.136;2022-12-18T17:03:03;22.50;;;11.63;;
46721;SDS011;32455;43.430;23.136;2022-12-18T17:05:48;36.60;;;14.77;;
46721;SDS011;32455;43.430;23.136;2022-12-18T17:08:33;24.92;;;12.95;;
46721;SDS011;32455;43.430;23.136;2022-12-18T17:11:18;23.90;;;12.30;;
46721;SDS011;32455;43.430;23.136;2022-12-18T17:14:07;21.10;;;10.85;;
46721;SDS011;32455;43.430;23.136;2022-12-18T17:16:54;22.83;;;11.95;;
46721;SDS011;32455;43.430;23.136;2022-12-18T17:19:44;24.30;;;12.23;;
46721;SDS011;32455;43.430;23.136;2022-12-18T17:22:29;21.67;;;12.63;;
46721;SDS011;32455;43.430;23.136;2022-12-18T17:25:19;22.02;;;11.13;;
46721;SDS011;32455;43.430;23.136;2022-12-18T17:28:05;20.67;;;9.77;;
46721;SDS011;32455;43.430;23.136;2022-12-18T17:30:50;21.40;;;10.88;;
46721;SDS011;32455;43.430;23.136;2022-12-18T17:33:38;27.13;;;12.40;;
46721;SDS011;32455;43.430;23.136;2022-12-18T17:36:24;24.73;;;13.23;;
46721;SDS011;32455;43.430;23.136;2022-12-18T17:39:15;23.02;;;12.65;;
46721;SDS011;32455;43.430;23.136;2022-12-18T17:42:03;20.92;;;12.18;;
46721;SDS011;32455;43.430;23.136;2022-12-18T17:44:48;19.88;;;11.50;;
46721;SDS011;32455;43.430;23.136;2022-12-18T17:47:34;24.35;;;12.50;;
46721;SDS011;32455;43.430;23.136;2022-12-18T17:50:19;19.08;;;11.02;;
46721;SDS011;32455;43.430;23.136;2022-12-18T17:53:05;21.65;;;11.60;;
46721;SDS011;32455;43.430;23.136;2022-12-18T17:55:53;21.52;;;11.35;;
46721;SDS011;32455;43.430;23.136;2022-12-18T17:58:40;21.60;;;11.85;;
46721;SDS011;32455;43.430;23.136;2022-12-18T18:01:26;27.48;;;12.60;;
46721;SDS011;32455;43.430;23.136;2022-12-18T18:04:12;20.38;;;11.80;;
46721;SDS011;32455;43.430;23.136;2022-12-18T18:06:58;21.52;;;11.63;;
46721;SDS011;32455;43.430;23.136;2022-12-18T18:09:44;26.35;;;11.45;;
46721;SDS011;32455;43.430;23.136;2022-12-18T18:12:29;23.20;;;12.00;;
46721;SDS011;32455;43.430;23.136;2022-12-18T18:15:34;31.77;;;15.90;;
46721;SDS011;32455;43.430;23.136;2022-12-18T18:18:19;25.88;;;14.15;;